Time;durP1;ratioP1;P1;durP2;ratioP2;P2;SDS_P1;SDS_P2;PMS_P1;PMS_P2;Temp;Humidity;BMP_temperature;BMP_pressure;BME280_temperature;BME280_humidity;BME280_pressure;Samples;Min_cycle;Max_cycle;Signal;HPM_P1;HPM_P2
2021/01/28 00:01:07;;;;;;;30.33;10.35;;;;;;;2.75;nan;96257.13;5012872;28;20236;-70
2021/01/28 00:03:35;;;;;;;99.93;27.75;;;;;;;2.80;nan;96228.69;5015156;28;20701;-71
2021/01/28 00:06:03;;;;;;;123.93;26.05;;;;;;;2.80;nan;96198.66;5013571;28;20221;-73
2021/01/28 00:08:30;;;;;;;189.50;37.17;;;;;;;;;;5016535;28;20227;-71
2021/01/28 00:10:57;;;;;;;75.03;15.30;;;;;;;2.82;nan;96222.59;5013026;28;20576;-72
2021/01/28 00:13:24;;;;;;;11.70;4.00;;;;;;;2.79;nan;96222.69;5014485;28;20300;-72
2021/01/28 00:15:51;;;;;;;28.60;8.23;;;;;;;2.76;nan;96216.81;5015427;28;20257;-70
2021/01/28 00:18:18;;;;;;;13.57;4.45;;;;;;;2.72;nan;96239.22;5014818;28;20585;-70
2021/01/28 00:20:47;;;;;;;16.83;5.22;;;;;;;2.74;nan;96178.38;5013929;28;20753;-69
2021/01/28 00:23:15;;;;;;;6.95;1.77;;;;;;;2.73;nan;96222.09;5014022;28;20621;-71
2021/01/28 00:25:43;;;;;;;44.95;11.15;;;;;;;;;;5012796;28;20694;-71
2021/01/28 00:28:14;;;;;;;4.38;2.42;;;;;;;2.78;nan;96204.78;5013653;28;20523;-69
2021/01/28 00:30:42;;;;;;;14.07;3.20;;;;;;;;;;5013491;28;20262;-71
2021/01/28 00:33:11;;;;;;;26.50;7.50;;;;;;;;;;5020880;28;20531;-71
2021/01/28 00:35:39;;;;;;;18.80;5.03;;;;;;;;;;5012545;28;20237;-70
2021/01/28 00:38:09;;;;;;;9.05;2.95;;;;;;;2.70;nan;96217.91;5012753;28;20227;-70
2021/01/28 00:40:36;;;;;;;20.92;6.95;;;;;;;2.80;nan;96214.09;5014083;28;20637;-69
2021/01/28 00:43:04;;;;;;;53.35;15.13;;;;;;;2.78;nan;96200.47;5014803;28;20670;-70
2021/01/28 00:45:31;;;;;;;20.02;7.00;;;;;;;;;;5015513;28;20280;-71
2021/01/28 00:47:59;;;;;;;50.78;18.35;;;;;;;2.81;nan;96195.19;5013359;28;20667;-70
2021/01/28 00:50:29;;;;;;;14.70;6.13;;;;;;;2.82;nan;96176.34;5012131;28;20632;-71
2021/01/28 00:52:56;;;;;;;2.63;1.30;;;;;;;2.81;nan;96200.34;5012976;28;20606;-71
2021/01/28 00:55:23;;;;;;;5.82;1.50;;;;;;;2.77;nan;96208.22;5014741;28;20569;-71
2021/01/28 00:57:51;;;;;;;4.28;1.58;;;;;;;2.79;nan;96202.13;5014364;28;20194;-70
2021/01/28 01:00:21;;;;;;;2.30;1.20;;;;;;;;;;5012929;28;21079;-70
2021/01/28 01:02:48;;;;;;;2.15;1.40;;;;;;;2.80;nan;96105.34;5011434;28;20202;-70
2021/01/28 01:05:17;;;;;;;1.63;1.10;;;;;;;2.83;nan;96152.31;5009168;28;20305;-69
2021/01/28 01:07:44;;;;;;;1.00;0.90;;;;;;;;;;5012755;28;20200;-71
2021/01/28 01:10:16;;;;;;;5.85;1.35;;;;;;;;;;5013087;28;20304;-69
2021/01/28 01:12:43;;;;;;;2.00;0.90;;;;;;;2.84;nan;96107.75;5011766;28;20224;-70
2021/01/28 01:15:11;;;;;;;1.20;0.90;;;;;;;2.93;nan;96086.81;5013554;28;20294;-70
2021/01/28 01:17:39;;;;;;;2.58;1.20;;;;;;;2.96;nan;96112.41;5012056;28;20656;-70
2021/01/28 01:20:07;;;;;;;1.40;1.30;;;;;;;2.99;nan;96162.81;5015541;28;20817;-69
2021/01/28 01:22:34;;;;;;;1.45;0.90;;;;;;;;;;5016812;28;20354;-70
2021/01/28 01:25:01;;;;;;;2.75;0.85;;;;;;;2.91;nan;96186.25;5015649;28;20496;-69
2021/01/28 01:27:27;;;;;;;1.50;0.75;;;;;;;;;;5016341;28;20295;-71
2021/01/28 01:29:54;;;;;;;0.80;0.80;;;;;;;2.95;nan;96163.84;5016581;28;20766;-69
2021/01/28 01:32:21;;;;;;;1.13;0.70;;;;;;;3.00;nan;96144.78;5017848;28;20243;-69
2021/01/28 01:34:49;;;;;;;0.90;0.65;;;;;;;2.98;nan;96161.13;5016247;28;20332;-69
2021/01/28 01:37:22;;;;;;;1.00;0.80;;;;;;;3.01;nan;96161.03;5013699;28;20207;-69
2021/01/28 01:39:49;;;;;;;7.30;1.13;;;;;;;3.02;nan;96168.66;5014735;28;20292;-68
2021/01/28 01:42:16;;;;;;;1.05;0.70;;;;;;;2.98;nan;96154.28;5013672;28;20200;-70
2021/01/28 01:44:43;;;;;;;1.73;0.80;;;;;;;2.96;nan;96147.53;5018094;28;20717;-69
2021/01/28 01:47:29;;;;;;;2.28;0.60;;;;;;;2.97;nan;96078.09;5017169;28;20243;-69
2021/01/28 01:49:56;;;;;;;0.90;0.80;;;;;;;3.02;nan;96137.81;5014989;28;20659;-69
2021/01/28 01:52:31;;;;;;;1.30;0.80;;;;;;;3.01;nan;96125.88;5016302;28;20706;-69
2021/01/28 01:54:59;;;;;;;1.23;0.60;;;;;;;2.99;nan;96119.97;5016019;28;20280;-69
2021/01/28 01:57:33;;;;;;;0.80;0.70;;;;;;;2.97;nan;96114.06;5017526;28;20259;-69
2021/01/28 02:00:07;;;;;;;5.68;0.75;;;;;;;2.97;nan;96093.50;5017210;28;20246;-69
2021/01/28 02:02:37;;;;;;;1.60;0.70;;;;;;;3.00;nan;96103.66;5015943;28;20192;-70
2021/01/28 02:05:16;;;;;;;0.90;0.77;;;;;;;3.00;nan;96103.66;5017603;28;20217;-69
2021/01/28 02:07:43;;;;;;;0.70;0.60;;;;;;;3.00;nan;96123.38;5015446;28;20294;-68
2021/01/28 02:10:12;;;;;;;0.70;0.60;;;;;;;;;;5014870;28;20651;-68
2021/01/28 02:12:39;;;;;;;1.30;0.82;;;;;;;;;;5014291;28;20252;-68
2021/01/28 02:15:08;;;;;;;1.83;0.50;;;;;;;3.00;nan;96093.38;5014876;28;20733;-69
2021/01/28 02:17:38;;;;;;;0.90;0.70;;;;;;;3.00;nan;96093.38;5018102;28;20705;-68
2021/01/28 02:20:36;;;;;;;0.82;0.65;;;;;;;2.98;nan;96090.03;5016170;28;20196;-69
2021/01/28 02:23:10;;;;;;;0.95;0.60;;;;;;;2.97;nan;96062.66;5015890;28;20831;-68
2021/01/28 02:25:40;;;;;;;5.28;0.70;;;;;;;;;;5016071;28;20669;-69
2021/01/28 02:28:10;;;;;;;0.73;0.60;;;;;;;2.97;nan;96072.09;5017707;28;20236;-69
2021/01/28 02:30:38;;;;;;;2.85;0.68;;;;;;;2.96;nan;96061.00;5015280;28;20654;-68
2021/01/28 02:33:07;;;;;;;0.75;0.60;;;;;;;2.96;nan;96066.13;5013459;28;20283;-68
2021/01/28 02:35:35;;;;;;;1.40;0.88;;;;;;;2.97;nan;96066.97;5014726;28;20686;-70
2021/01/28 02:38:06;;;;;;;0.80;0.50;;;;;;;2.99;nan;96065.16;5016407;28;20273;-69
2021/01/28 02:40:34;;;;;;;0.60;0.50;;;;;;;2.98;nan;96064.34;5014878;28;20664;-68
2021/01/28 02:43:02;;;;;;;0.80;0.60;;;;;;;3.02;nan;96055.56;5014653;28;20584;-70
2021/01/28 02:45:30;;;;;;;0.73;0.50;;;;;;;;;;5014977;28;20333;-68
2021/01/28 02:48:00;;;;;;;1.10;0.50;;;;;;;2.98;nan;96073.75;5017647;28;20558;-68
2021/01/28 02:50:29;;;;;;;0.60;0.50;;;;;;;2.98;nan;96027.50;5017342;28;20598;-70
2021/01/28 02:52:57;;;;;;;1.23;0.55;;;;;;;3.01;nan;96047.97;5014857;28;20283;-69
2021/01/28 02:55:26;;;;;;;2.00;0.50;;;;;;;2.92;nan;96054.31;5014142;28;20263;-70
2021/01/28 02:57:53;;;;;;;0.80;0.80;;;;;;;3.03;nan;96030.72;5015880;28;20447;-69
2021/01/28 03:00:27;;;;;;;5.30;0.80;;;;;;;3.04;nan;96028.09;5015719;28;20307;-70
2021/01/28 03:02:54;;;;;;;0.85;0.60;;;;;;;3.02;nan;96029.88;5015498;28;20195;-69
2021/01/28 03:05:21;;;;;;;0.60;0.55;;;;;;;;;;5016191;28;20256;-68
2021/01/28 03:07:48;;;;;;;1.20;0.60;;;;;;;3.05;nan;96004.06;5015274;28;20889;-69
2021/01/28 03:10:16;;;;;;;2.35;0.90;;;;;;;;;;5015940;28;20726;-68
2021/01/28 03:12:42;;;;;;;0.80;0.50;;;;;;;3.16;nan;96011.31;5016179;28;20236;-69
2021/01/28 03:15:11;;;;;;;1.23;0.60;;;;;;;3.16;nan;96011.31;5014904;28;20228;-69
2021/01/28 03:17:38;;;;;;;0.70;0.60;;;;;;;3.21;nan;96004.22;5014728;28;20748;-72
2021/01/28 03:20:06;;;;;;;0.80;0.63;;;;;;;;;;5013355;28;20741;-68
2021/01/28 03:22:33;;;;;;;0.60;0.50;;;;;;;3.28;nan;96006.47;5017883;28;20197;-70
2021/01/28 03:25:00;;;;;;;0.80;0.52;;;;;;;3.32;nan;95996.91;5020637;28;20294;-70
2021/01/28 03:27:27;;;;;;;2.13;0.50;;;;;;;3.40;nan;96000.81;5014706;28;20246;-70
2021/01/28 03:29:54;;;;;;;1.70;0.65;;;;;;;3.46;nan;96010.81;5013604;28;20223;-70
2021/01/28 03:32:21;;;;;;;0.70;0.50;;;;;;;;;;5014739;28;20234;-70
2021/01/28 03:34:49;;;;;;;1.50;0.63;;;;;;;3.41;nan;96022.22;5014897;28;20219;-71
2021/01/28 03:37:16;;;;;;;0.95;0.68;;;;;;;3.39;nan;95983.69;5010986;28;20694;-70
2021/01/28 03:39:42;;;;;;;2.35;0.55;;;;;;;;;;5014018;28;20528;-71
2021/01/28 03:42:10;;;;;;;0.60;0.50;;;;;;;;;;5013424;28;20224;-70
2021/01/28 03:44:37;;;;;;;0.70;0.60;;;;;;;;;;5012933;28;20575;-71
2021/01/28 03:47:04;;;;;;;0.70;0.60;;;;;;;3.37;nan;95948.69;5014508;28;20221;-71
2021/01/28 03:49:31;;;;;;;0.90;0.70;;;;;;;3.36;nan;95934.97;5014391;28;20192;-70
2021/01/28 03:51:59;;;;;;;0.70;0.60;;;;;;;3.23;nan;95915.84;5013916;28;20225;-73
2021/01/28 03:54:26;;;;;;;0.80;0.70;;;;;;;3.26;nan;95909.75;5014457;28;20245;-71
2021/01/28 03:56:53;;;;;;;1.20;0.95;;;;;;;3.28;nan;95924.22;5016719;28;20509;-71
2021/01/28 03:59:19;;;;;;;1.00;0.75;;;;;;;3.25;nan;95919.22;5013047;28;20851;-71
2021/01/28 04:01:46;;;;;;;1.00;0.80;;;;;;;3.23;nan;95894.47;5012548;28;20970;-72
2021/01/28 04:04:13;;;;;;;1.90;0.70;;;;;;;3.22;nan;95919.34;5014683;28;20621;-70
2021/01/28 04:06:42;;;;;;;0.90;0.60;;;;;;;;;;5013622;28;20895;-70
2021/01/28 04:09:11;;;;;;;1.30;0.70;;;;;;;3.21;nan;95886.81;5014743;28;21024;-71
2021/01/28 04:11:37;;;;;;;0.80;0.60;;;;;;;;;;5012944;28;20621;-72
2021/01/28 04:14:04;;;;;;;1.10;0.77;;;;;;;3.33;nan;95870.84;5014114;28;20546;-72
2021/01/28 04:16:31;;;;;;;0.70;0.60;;;;;;;3.36;nan;95880.97;5014039;28;20623;-70
2021/01/28 04:18:58;;;;;;;2.10;0.70;;;;;;;3.38;nan;95868.88;5014113;28;20677;-71
2021/01/28 04:21:26;;;;;;;1.05;0.73;;;;;;;3.53;nan;95827.00;5014011;28;20377;-71
2021/01/28 04:23:53;;;;;;;2.65;0.80;;;;;;;3.61;nan;95866.06;5014259;28;20295;-70
2021/01/28 04:26:20;;;;;;;0.90;0.70;;;;;;;3.69;nan;95863.16;5012807;28;20315;-71
2021/01/28 04:28:47;;;;;;;1.25;0.82;;;;;;;3.80;nan;95840.31;5014296;28;20232;-73
2021/01/28 04:31:15;;;;;;;1.05;0.85;;;;;;;3.76;nan;95857.63;5013394;28;20660;-73
2021/01/28 04:33:41;;;;;;;0.90;0.65;;;;;;;;;;5014552;28;20650;-70
2021/01/28 04:36:09;;;;;;;0.80;0.70;;;;;;;3.51;nan;95817.69;5013986;28;20755;-71
2021/01/28 04:38:35;;;;;;;0.90;0.70;;;;;;;3.40;nan;95831.09;5015038;28;20206;-71
2021/01/28 04:41:06;;;;;;;1.00;0.73;;;;;;;;;;5012948;28;21016;-69
2021/01/28 04:43:34;;;;;;;0.73;0.60;;;;;;;;;;5012654;28;20197;-73
2021/01/28 04:46:03;;;;;;;1.00;0.90;;;;;;;;;;5013631;28;20639;-73
2021/01/28 04:48:32;;;;;;;0.82;0.80;;;;;;;3.36;nan;95808.97;5012771;28;20235;-72
2021/01/28 04:51:01;;;;;;;0.95;0.75;;;;;;;3.42;nan;95813.84;5012445;28;20796;-72
2021/01/28 04:53:31;;;;;;;0.93;0.82;;;;;;;;;;5014491;28;20279;-71
2021/01/28 04:56:04;;;;;;;1.48;1.08;;;;;;;3.40;nan;95810.53;5023551;28;20467;-70
2021/01/28 04:58:31;;;;;;;1.27;0.98;;;;;;;;;;5020807;28;20712;-70
2021/01/28 05:00:59;;;;;;;1.08;0.98;;;;;;;3.37;nan;95784.94;5027046;28;20220;-70
2021/01/28 05:03:30;;;;;;;1.83;1.00;;;;;;;3.41;nan;95781.31;5018822;28;20193;-73
2021/01/28 05:06:00;;;;;;;1.17;1.05;;;;;;;3.37;nan;95773.81;5016765;28;20586;-72
2021/01/28 05:08:27;;;;;;;1.33;0.90;;;;;;;;;;5016293;28;20652;-72
2021/01/28 05:10:57;;;;;;;1.52;0.80;;;;;;;3.41;nan;95754.75;5016234;28;20602;-71
2021/01/28 05:13:30;;;;;;;1.50;1.23;;;;;;;3.37;nan;95753.25;5017237;28;20673;-70
2021/01/28 05:15:59;;;;;;;1.85;1.10;;;;;;;;;;5016116;28;20307;-71
2021/01/28 05:18:31;;;;;;;2.25;1.05;;;;;;;3.45;nan;95741.69;5016378;28;20228;-72
2021/01/28 05:21:18;;;;;;;1.45;0.90;;;;;;;3.47;nan;95739.03;5015762;28;20220;-72
2021/01/28 05:23:46;;;;;;;1.83;1.10;;;;;;;3.42;nan;95726.41;5017096;28;20291;-72
2021/01/28 05:26:30;;;;;;;3.13;1.45;;;;;;;;;;5015424;28;20759;-71
2021/01/28 05:29:11;;;;;;;1.50;1.40;;;;;;;;;;5017125;28;20193;-70
2021/01/28 05:31:39;;;;;;;2.92;1.58;;;;;;;3.42;nan;95767.56;5018416;28;20262;-70
2021/01/28 05:34:07;;;;;;;4.15;2.40;;;;;;;3.38;nan;95750.59;5016845;28;20208;-70
2021/01/28 05:36:36;;;;;;;3.65;1.88;;;;;;;3.42;nan;95730.72;5017200;28;20734;-71
2021/01/28 05:39:15;;;;;;;3.58;2.17;;;;;;;;;;5017926;28;20197;-71
2021/01/28 05:41:43;;;;;;;3.70;2.13;;;;;;;;;;5012914;28;20296;-70
2021/01/28 05:44:16;;;;;;;3.13;1.63;;;;;;;3.45;nan;95705.66;5016328;28;20688;-70
2021/01/28 05:46:59;;;;;;;5.47;1.95;;;;;;;3.38;nan;95703.50;5016402;28;20224;-69
2021/01/28 05:49:26;;;;;;;4.15;2.45;;;;;;;3.43;nan;95707.50;5013828;28;20215;-70
2021/01/28 05:51:53;;;;;;;4.90;2.13;;;;;;;;;;5016494;28;20779;-69
2021/01/28 05:54:22;;;;;;;4.65;2.60;;;;;;;3.42;nan;95700.69;5017427;28;20196;-70
2021/01/28 05:57:07;;;;;;;3.17;1.73;;;;;;;3.43;nan;95691.22;5014273;28;20640;-69
2021/01/28 05:59:35;;;;;;;4.80;2.30;;;;;;;;;;5015103;28;20213;-69
2021/01/28 06:02:17;;;;;;;3.65;2.10;;;;;;;3.40;nan;95675.97;5015380;28;20227;-70
2021/01/28 06:04:50;;;;;;;4.03;2.38;;;;;;;;;;5015114;28;20304;-70
2021/01/28 06:07:32;;;;;;;3.42;2.30;;;;;;;;;;5015156;28;20218;-70
2021/01/28 06:10:12;;;;;;;4.72;2.42;;;;;;;3.46;nan;95670.50;5013072;28;20590;-70
2021/01/28 06:13:22;;;;;;;4.88;2.17;;;;;;;3.45;nan;95669.66;5017223;28;20611;-71
2021/01/28 06:15:58;;;;;;;6.40;2.40;;;;;;;3.53;nan;95641.81;4988733;28;20258;-69
2021/01/28 06:19:03;;;;;;;3.10;2.25;;;;;;;3.55;nan;95665.75;5013152;28;20219;-70
2021/01/28 06:21:51;;;;;;;4.97;2.75;;;;;;;;;;5013555;28;20612;-70
2021/01/28 06:24:42;;;;;;;8.90;3.30;;;;;;;3.34;nan;95615.38;5012884;28;20718;-70
2021/01/28 06:27:29;;;;;;;6.63;3.63;;;;;;;3.43;nan;95604.63;5017060;28;20247;-70
2021/01/28 06:30:10;;;;;;;5.60;2.90;;;;;;;3.39;nan;95628.00;5014356;28;20284;-69
2021/01/28 06:33:12;;;;;;;6.72;3.50;;;;;;;3.38;nan;95574.94;5015443;28;20700;-69
2021/01/28 06:35:59;;;;;;;6.65;3.60;;;;;;;3.34;nan;95615.38;5014255;28;20223;-72
2021/01/28 06:38:45;;;;;;;11.52;4.07;;;;;;;3.13;nan;95615.59;5015305;28;20709;-70
2021/01/28 06:41:18;;;;;;;9.60;4.25;;;;;;;3.21;nan;95598.91;5015229;28;20303;-72
2021/01/28 06:43:51;;;;;;;7.80;4.38;;;;;;;3.21;nan;95598.91;5017059;28;20291;-71
2021/01/28 06:46:30;;;;;;;8.43;4.78;;;;;;;3.28;nan;95584.00;5019203;28;20260;-72
2021/01/28 06:49:01;;;;;;;8.95;4.38;;;;;;;;;;5014569;28;20703;-71
2021/01/28 06:51:37;;;;;;;7.93;3.95;;;;;;;3.30;nan;95603.56;5016969;28;20486;-71
2021/01/28 06:54:09;;;;;;;7.45;4.32;;;;;;;3.29;nan;95545.34;5015479;28;20241;-69
2021/01/28 06:56:43;;;;;;;11.15;3.92;;;;;;;3.28;nan;95595.13;5016218;28;20306;-71
2021/01/28 06:59:20;;;;;;;6.40;3.60;;;;;;;3.27;nan;95624.31;5014792;28;20640;-70
2021/01/28 07:01:55;;;;;;;6.82;3.70;;;;;;;3.34;nan;95588.81;5012327;28;20315;-70
2021/01/28 07:04:24;;;;;;;9.60;4.13;;;;;;;;;;5014628;28;20300;-70
2021/01/28 07:07:00;;;;;;;5.93;3.20;;;;;;;3.42;nan;95584.97;5014745;28;20215;-71
2021/01/28 07:09:34;;;;;;;5.45;2.85;;;;;;;3.44;nan;95575.44;5015586;28;20303;-70
2021/01/28 07:12:06;;;;;;;4.88;2.97;;;;;;;3.43;nan;95578.06;5013590;28;20903;-71
2021/01/28 07:14:33;;;;;;;7.13;3.25;;;;;;;3.46;nan;95563.31;5015290;28;20280;-70
2021/01/28 07:17:02;;;;;;;4.53;2.80;;;;;;;;;;5014042;28;20561;-71
2021/01/28 07:19:31;;;;;;;6.18;3.20;;;;;;;;;;5014084;28;20196;-72
2021/01/28 07:22:21;;;;;;;5.55;2.67;;;;;;;;;;5013587;28;20733;-72
2021/01/28 07:24:49;;;;;;;5.78;3.08;;;;;;;3.39;nan;95546.53;5012115;28;20197;-72
2021/01/28 07:27:20;;;;;;;8.63;4.15;;;;;;;3.41;nan;95559.31;5014270;28;20308;-72
2021/01/28 07:29:56;;;;;;;3.42;2.25;;;;;;;3.46;nan;95532.47;5014065;28;20280;-71
2021/01/28 07:32:56;;;;;;;6.22;3.00;;;;;;;3.50;nan;95554.56;5011842;28;20339;-70
2021/01/28 07:35:35;;;;;;;8.05;3.97;;;;;;;3.52;nan;95506.44;5014921;28;20534;-71
2021/01/28 07:38:16;;;;;;;4.97;2.95;;;;;;;;;;5015035;28;20385;-72
2021/01/28 07:40:59;;;;;;;4.07;2.72;;;;;;;21.47;100.00;78309.50;5012060;28;20303;-69
2021/01/28 07:43:26;;;;;;;4.68;2.78;;;;;;;;;;5013249;28;20236;-70
2021/01/28 07:46:08;;;;;;;4.88;2.50;;;;;;;;;;5013049;28;20546;-69
2021/01/28 07:48:35;;;;;;;6.47;2.85;;;;;;;3.75;nan;95524.06;5013589;28;20188;-69
2021/01/28 07:51:27;;;;;;;5.05;2.50;;;;;;;3.80;nan;95522.09;5014977;28;20230;-72
2021/01/28 07:53:54;;;;;;;5.13;3.25;;;;;;;3.86;nan;95516.63;5013346;28;20299;-68
2021/01/28 07:56:53;;;;;;;7.22;3.28;;;;;;;3.87;nan;95510.56;5015424;28;20216;-70
2021/01/28 07:59:29;;;;;;;6.28;3.00;;;;;;;3.93;nan;95497.34;4940486;28;20603;-69
2021/01/28 08:01:58;;;;;;;4.22;2.65;;;;;;;3.97;nan;95495.44;4996727;28;20224;-70
2021/01/28 08:04:33;;;;;;;5.63;3.15;;;;;;;4.05;nan;95496.69;5013545;28;20231;-69
2021/01/28 08:07:06;;;;;;;4.95;3.25;;;;;;;4.01;nan;95484.91;5014345;28;20265;-68
2021/01/28 08:09:45;;;;;;;5.35;3.40;;;;;;;4.07;nan;95453.69;5014931;28;20192;-69
2021/01/28 08:12:12;;;;;;;5.65;3.50;;;;;;;4.14;nan;95475.59;5014009;28;20230;-69
2021/01/28 08:14:44;;;;;;;29.10;4.95;;;;;;;4.23;nan;95472.50;5013640;28;20199;-70
2021/01/28 08:17:16;;;;;;;5.88;2.75;;;;;;;4.12;nan;95431.06;5023899;28;20412;-69
2021/01/28 08:19:43;;;;;;;7.55;3.20;;;;;;;;;;5021229;28;20285;-68
2021/01/28 08:22:15;;;;;;;4.55;2.80;;;;;;;4.14;nan;95491.84;5014781;28;20218;-68
2021/01/28 08:24:52;;;;;;;5.18;3.40;;;;;;;4.12;nan;95451.66;5012876;28;20335;-69
2021/01/28 08:27:22;;;;;;;3.88;2.75;;;;;;;;;;5011087;28;20254;-69
2021/01/28 08:30:01;;;;;;;5.15;3.15;;;;;;;4.09;nan;95415.81;5011447;28;20279;-69
2021/01/28 08:32:30;;;;;;;5.75;3.13;;;;;;;4.14;nan;95429.25;5011472;28;20207;-68
2021/01/28 08:35:00;;;;;;;7.55;3.05;;;;;;;4.09;nan;95431.25;5015060;28;20194;-69
2021/01/28 08:37:28;;;;;;;4.32;2.83;;;;;;;4.09;nan;95441.56;5013956;28;20617;-69
2021/01/28 08:39:56;;;;;;;5.65;3.30;;;;;;;4.13;nan;95407.81;5013048;28;20205;-69
2021/01/28 08:42:26;;;;;;;2.72;1.95;;;;;;;4.09;nan;95395.22;5013387;28;20242;-68
2021/01/28 08:45:06;;;;;;;3.92;2.28;;;;;;;;;;5013637;28;20639;-70
2021/01/28 08:47:33;;;;;;;4.57;2.72;;;;;;;4.24;nan;95390.03;5014308;28;20743;-72
2021/01/28 08:50:02;;;;;;;5.65;3.10;;;;;;;4.20;nan;95372.25;5012390;28;20505;-72
2021/01/28 08:52:29;;;;;;;4.75;2.78;;;;;;;4.23;nan;95382.41;5012511;28;20197;-72
2021/01/28 08:54:56;;;;;;;6.63;3.22;;;;;;;4.22;nan;95375.59;5013280;28;20202;-72
2021/01/28 08:57:26;;;;;;;5.05;2.22;;;;;;;4.24;nan;95368.59;5013802;28;20215;-71
2021/01/28 08:59:58;;;;;;;5.43;3.15;;;;;;;4.19;nan;95365.44;5011452;28;20636;-72
2021/01/28 09:02:29;;;;;;;4.60;2.55;;;;;;;;;;5013345;28;20580;-72
2021/01/28 09:05:03;;;;;;;5.32;2.90;;;;;;;4.18;nan;95353.50;5011400;28;20205;-70
2021/01/28 09:07:48;;;;;;;4.53;2.70;;;;;;;4.23;nan;95341.19;5011805;28;20216;-72
2021/01/28 09:10:24;;;;;;;5.55;2.75;;;;;;;;;;5013122;28;20761;-71
2021/01/28 09:12:52;;;;;;;4.82;2.40;;;;;;;4.30;nan;95327.06;5008814;28;20230;-71
2021/01/28 09:15:23;;;;;;;3.63;2.20;;;;;;;4.27;nan;95342.66;5011922;28;20678;-72
2021/01/28 09:17:52;;;;;;;6.28;2.60;;;;;;;4.25;nan;95318.75;5010867;28;20275;-68
2021/01/28 09:20:22;;;;;;;4.85;2.55;;;;;;;;;;5009470;28;20224;-69
2021/01/28 09:22:49;;;;;;;5.25;2.58;;;;;;;;;;5010007;28;20705;-68
2021/01/28 09:25:21;;;;;;;4.75;2.67;;;;;;;4.44;nan;95325.31;5007964;28;20893;-69
2021/01/28 09:28:00;;;;;;;3.10;2.20;;;;;;;4.55;nan;95311.81;5012231;28;20236;-69
2021/01/28 09:30:31;;;;;;;5.00;2.75;;;;;;;;;;5008643;28;20693;-70
2021/01/28 09:32:58;;;;;;;4.78;1.88;;;;;;;4.67;nan;95219.13;5012136;28;20272;-69
2021/01/28 09:35:27;;;;;;;2.42;1.85;;;;;;;4.69;nan;95319.53;5011606;28;20234;-68
2021/01/28 09:38:12;;;;;;;3.03;2.13;;;;;;;4.75;nan;95272.78;5011132;28;20230;-69
2021/01/28 09:40:42;;;;;;;4.40;1.67;;;;;;;4.83;nan;95260.28;5014837;28;20255;-69
2021/01/28 09:43:24;;;;;;;3.50;1.95;;;;;;;4.91;nan;95309.59;5014228;28;20233;-72
2021/01/28 09:46:03;;;;;;;4.22;2.20;;;;;;;;;;5013265;28;20386;-68
2021/01/28 09:48:30;;;;;;;2.88;1.73;;;;;;;5.00;nan;95314.19;5016435;28;20473;-69
2021/01/28 09:50:57;;;;;;;3.08;1.60;;;;;;;4.99;nan;95307.38;5018965;28;20324;-68
2021/01/28 09:53:24;;;;;;;2.00;1.58;;;;;;;4.92;nan;95291.47;5015619;28;20511;-68
2021/01/28 09:55:51;;;;;;;4.13;2.13;;;;;;;4.89;nan;95306.28;5014121;28;20900;-68
2021/01/28 09:58:20;;;;;;;2.25;1.27;;;;;;;4.89;nan;95306.28;5016425;28;20287;-69
2021/01/28 10:00:47;;;;;;;2.75;1.40;;;;;;;4.91;nan;95305.28;5017882;28;20683;-69
2021/01/28 10:03:15;;;;;;;5.45;3.08;;;;;;;4.90;nan;95300.22;5021511;28;20265;-68
2021/01/28 10:05:42;;;;;;;2.97;1.75;;;;;;;4.88;nan;95304.66;5017120;28;20847;-69
2021/01/28 10:08:10;;;;;;;1.77;1.25;;;;;;;4.89;nan;95271.03;5019457;28;20621;-68
2021/01/28 10:10:38;;;;;;;1.80;1.35;;;;;;;4.95;nan;95298.19;5031805;28;21026;-69
2021/01/28 10:13:08;;;;;;;2.50;1.67;;;;;;;4.93;nan;95307.75;4988393;28;832125;-70
2021/01/28 10:15:36;;;;;;;1.55;1.13;;;;;;;4.97;nan;95314.41;5022125;28;20755;-69
2021/01/28 10:18:03;;;;;;;6.90;3.15;;;;;;;;;;5023652;28;20650;-69
2021/01/28 10:20:30;;;;;;;18.98;6.63;;;;;;;;;;5025717;28;20331;-69
2021/01/28 10:23:01;;;;;;;3.85;1.92;;;;;;;5.07;nan;95310.31;5025196;28;20235;-69
2021/01/28 10:25:28;;;;;;;2.58;0.95;;;;;;;;;;5024996;28;20224;-69
2021/01/28 10:27:55;;;;;;;4.95;1.90;;;;;;;5.13;nan;95300.47;5023855;28;20543;-69
2021/01/28 10:30:23;;;;;;;3.50;1.85;;;;;;;5.17;nan;95306.28;5030059;28;20677;-70
2021/01/28 10:33:00;;;;;;;10.38;4.45;;;;;;;5.23;nan;95305.91;5015392;28;20200;-69
2021/01/28 10:35:29;;;;;;;3.45;1.88;;;;;;;5.24;nan;95287.72;5019257;28;20555;-68
2021/01/28 10:38:00;;;;;;;11.70;4.43;;;;;;;5.25;nan;95257.63;5017704;28;20221;-71
2021/01/28 10:40:29;;;;;;;4.03;1.65;;;;;;;5.29;nan;95295.19;5016876;28;20614;-69
2021/01/28 10:42:56;;;;;;;7.50;3.60;;;;;;;;;;5016915;28;20294;-70
2021/01/28 10:45:25;;;;;;;2.78;1.60;;;;;;;5.38;nan;95277.38;5018653;28;20224;-70
2021/01/28 10:47:53;;;;;;;3.10;1.70;;;;;;;5.46;nan;95261.44;5016350;28;20216;-71
2021/01/28 10:50:27;;;;;;;3.35;1.30;;;;;;;5.53;nan;95267.84;5016254;28;20682;-68
2021/01/28 10:52:54;;;;;;;1.00;0.80;;;;;;;5.64;nan;95267.97;5016256;28;20220;-69
2021/01/28 10:55:21;;;;;;;7.22;2.58;;;;;;;;;;5018219;28;20588;-70
2021/01/28 10:57:49;;;;;;;1.20;0.98;;;;;;;5.77;nan;95250.78;5017566;28;20219;-69
2021/01/28 11:00:17;;;;;;;2.80;1.20;;;;;;;;;;5016978;28;20256;-69
2021/01/28 11:02:44;;;;;;;1.52;1.10;;;;;;;5.83;nan;95240.09;5020100;28;20184;-70
2021/01/28 11:05:18;;;;;;;3.00;0.95;;;;;;;5.84;nan;95272.72;5017793;28;20232;-70
2021/01/28 11:07:46;;;;;;;2.47;0.95;;;;;;;5.84;nan;95221.09;5015533;28;20617;-71
2021/01/28 11:10:15;;;;;;;2.88;1.40;;;;;;;5.89;nan;95219.88;5015753;28;20637;-70
2021/01/28 11:12:41;;;;;;;1.98;1.20;;;;;;;;;;5017416;28;20749;-70
2021/01/28 11:15:09;;;;;;;1.05;0.80;;;;;;;;;;5024051;28;20744;-72
2021/01/28 11:17:37;;;;;;;1.38;0.93;;;;;;;6.06;nan;95144.66;5018727;28;20220;-71
2021/01/28 11:20:06;;;;;;;2.08;0.80;;;;;;;6.10;nan;95155.63;5014507;28;20287;-71
2021/01/28 11:22:33;;;;;;;1.52;0.98;;;;;;;6.22;nan;95196.13;5016057;28;20232;-72
2021/01/28 11:25:00;;;;;;;0.90;0.80;;;;;;;6.40;nan;95184.56;5016496;28;20196;-71
2021/01/28 11:27:27;;;;;;;1.10;0.80;;;;;;;6.64;nan;95177.69;5014442;28;20204;-71
2021/01/28 11:29:54;;;;;;;1.10;0.70;;;;;;;6.76;nan;95163.91;5014904;28;20775;-70
2021/01/28 11:32:21;;;;;;;1.27;0.90;;;;;;;;;;5016059;28;20242;-71
2021/01/28 11:34:48;;;;;;;0.80;0.70;;;;;;;;;;5013313;28;20204;-70
2021/01/28 11:37:15;;;;;;;1.70;0.90;;;;;;;7.01;nan;95114.69;5015372;28;20718;-70
2021/01/28 11:39:43;;;;;;;1.23;0.70;;;;;;;7.08;nan;95142.59;5014277;28;20228;-70
2021/01/28 11:42:10;;;;;;;1.33;0.80;;;;;;;;;;5014212;28;20220;-72
2021/01/28 11:44:37;;;;;;;3.28;0.90;;;;;;;;;;5015844;28;20534;-70
2021/01/28 11:47:03;;;;;;;1.40;0.88;;;;;;;;;;5013768;28;20858;-72
2021/01/28 11:49:30;;;;;;;3.42;0.70;;;;;;;7.20;nan;95152.06;5014498;28;20201;-71
2021/01/28 11:51:57;;;;;;;1.65;0.60;;;;;;;7.22;nan;95118.31;5015509;28;20293;-72
2021/01/28 11:54:24;;;;;;;0.90;0.68;;;;;;;7.24;nan;95142.31;5014586;28;20307;-71
2021/01/28 11:56:52;;;;;;;1.00;0.70;;;;;;;7.33;nan;95126.13;5016345;28;20737;-71
2021/01/28 11:59:19;;;;;;;1.42;0.60;;;;;;;7.40;nan;95143.69;5015849;28;20588;-71
2021/01/28 12:01:45;;;;;;;3.40;1.00;;;;;;;7.60;nan;95144.81;5014810;28;20709;-71
2021/01/28 12:04:14;;;;;;;0.70;0.60;;;;;;;7.70;nan;95167.31;5015757;28;20666;-71
2021/01/28 12:06:40;;;;;;;2.05;0.95;;;;;;;;;;5011934;28;20303;-71
2021/01/28 12:09:07;;;;;;;1.10;0.77;;;;;;;7.87;nan;95147.97;5010064;28;20291;-72
2021/01/28 12:11:34;;;;;;;4.43;1.30;;;;;;;7.89;nan;95140.88;5014910;28;20321;-70
2021/01/28 12:14:02;;;;;;;1.90;0.93;;;;;;;7.87;nan;95145.38;5013453;28;20461;-71
2021/01/28 12:16:29;;;;;;;3.03;1.10;;;;;;;7.95;nan;95151.59;5014247;28;20314;-71
2021/01/28 12:18:55;;;;;;;1.10;0.70;;;;;;;;;;5014775;28;20279;-71
2021/01/28 12:21:23;;;;;;;1.77;1.03;;;;;;;8.08;nan;95141.97;5013674;28;20486;-72
2021/01/28 12:23:50;;;;;;;1.47;0.80;;;;;;;;;;5013907;28;20862;-71
2021/01/28 12:26:20;;;;;;;10.07;3.67;;;;;;;8.13;nan;95139.88;5010858;28;20901;-71
2021/01/28 12:28:47;;;;;;;2.40;1.60;;;;;;;8.16;nan;95118.91;5013395;28;20670;-72
2021/01/28 12:31:14;;;;;;;1.97;1.20;;;;;;;8.27;nan;95132.72;5013684;28;20604;-72
2021/01/28 12:33:42;;;;;;;1.67;0.97;;;;;;;8.52;nan;95132.50;5013010;28;20458;-70
2021/01/28 12:36:10;;;;;;;1.52;1.13;;;;;;;8.82;nan;95104.16;5012831;28;20466;-70
2021/01/28 12:38:37;;;;;;;1.00;0.77;;;;;;;21.40;100.00;104201.78;5013544;28;20239;-71
2021/01/28 12:41:05;;;;;;;1.03;0.80;;;;;;;9.22;nan;95112.19;5012686;28;20487;-71
2021/01/28 12:43:32;;;;;;;0.90;0.70;;;;;;;9.43;nan;95142.44;5013549;28;20497;-71
2021/01/28 12:45:59;;;;;;;1.10;0.67;;;;;;;9.60;nan;95113.31;5013241;28;20466;-71
2021/01/28 12:48:27;;;;;;;0.80;0.60;;;;;;;9.78;nan;95121.38;5013258;28;20549;-72